createdAt,value
2022-09-03T00:00:16.385Z,18.16
2022-09-03T00:02:49.397Z,18.14
2022-09-03T00:05:23.387Z,18.16
2022-09-03T00:08:23.293Z,18.14
2022-09-03T00:11:03.326Z,18.11
2022-09-03T00:13:36.040Z,18.10
2022-09-03T00:16:10.355Z,18.07
2022-09-03T00:18:44.359Z,18.07
2022-09-03T00:21:37.152Z,18.05
2022-09-03T00:24:08.252Z,18.06
2022-09-03T00:26:47.264Z,18.01
2022-09-03T00:29:18.444Z,17.99
2022-09-03T00:31:53.414Z,18.00
2022-09-03T00:34:27.068Z,18.01
2022-09-03T00:36:53.790Z,17.98
2022-09-03T00:39:22.670Z,17.97
2022-09-03T00:42:26.910Z,17.95
2022-09-03T00:45:06.350Z,17.93
2022-09-03T00:47:57.335Z,17.85
2022-09-03T00:50:42.277Z,17.85
2022-09-03T00:53:24.222Z,17.86
2022-09-03T00:56:02.411Z,17.85
2022-09-03T00:58:43.879Z,17.86
2022-09-03T01:01:34.986Z,17.82
2022-09-03T01:04:21.591Z,17.82
2022-09-03T01:07:06.540Z,17.81
2022-09-03T01:09:58.267Z,17.78
2022-09-03T01:12:39.774Z,17.76
2022-09-03T01:15:32.642Z,17.77
2022-09-03T01:18:19.054Z,17.76
2022-09-03T01:21:04.538Z,17.76
2022-09-03T01:23:43.524Z,17.74
2022-09-03T01:26:42.926Z,17.72
2022-09-03T01:29:41.068Z,17.68
2022-09-03T01:32:23.737Z,17.68
2022-09-03T01:35:14.122Z,17.67
2022-09-03T01:37:59.847Z,17.64
2022-09-03T01:40:50.221Z,17.64
2022-09-03T01:44:24.213Z,17.59
2022-09-03T01:47:00.092Z,17.60
2022-09-03T01:49:38.559Z,17.59
2022-09-03T01:52:13.132Z,17.55
2022-09-03T01:54:56.038Z,17.55
2022-09-03T01:57:57.122Z,17.52
2022-09-03T02:00:28.392Z,17.52
2022-09-03T02:02:55.365Z,17.48
2022-09-03T02:05:25.266Z,17.48
2022-09-03T02:07:59.258Z,17.46
2022-09-03T02:10:31.799Z,17.44
2022-09-03T02:13:18.698Z,17.42
2022-09-03T02:15:48.650Z,17.38
2022-09-03T02:18:19.079Z,17.39
2022-09-03T02:20:48.033Z,17.37
2022-09-03T02:23:15.423Z,17.33
2022-09-03T02:25:46.437Z,17.33
2022-09-03T02:28:17.284Z,17.30
2022-09-03T02:30:44.705Z,17.29
2022-09-03T02:33:11.398Z,17.25
2022-09-03T02:35:39.767Z,17.24
2022-09-03T02:38:18.570Z,17.21
2022-09-03T02:40:45.723Z,17.20
2022-09-03T02:43:20.673Z,17.16
2022-09-03T02:45:56.187Z,17.13
2022-09-03T02:48:24.492Z,17.14
2022-09-03T02:50:51.046Z,17.09
2022-09-03T02:53:17.619Z,17.10
2022-09-03T02:55:44.089Z,17.07
2022-09-03T02:58:10.554Z,17.07
2022-09-03T03:00:37.509Z,17.02
2022-09-03T03:03:05.671Z,17.02
2022-09-03T03:05:45.088Z,16.97
2022-09-03T03:08:15.030Z,16.98
2022-09-03T03:10:44.030Z,16.93
2022-09-03T03:13:11.074Z,16.93
2022-09-03T03:15:37.669Z,16.89
2022-09-03T03:18:04.172Z,16.90
2022-09-03T03:20:30.673Z,16.89
2022-09-03T03:22:57.153Z,16.86
2022-09-03T03:25:23.563Z,16.84
2022-09-03T03:27:50.024Z,16.82
2022-09-03T03:30:16.551Z,16.80
2022-09-03T03:32:43.050Z,16.75
2022-09-03T03:35:11.780Z,16.77
2022-09-03T03:37:38.234Z,16.76
2022-09-03T03:40:05.035Z,16.74
2022-09-03T03:42:34.502Z,16.71
2022-09-03T03:45:02.597Z,16.70
2022-09-03T03:47:32.604Z,16.69
2022-09-03T03:49:59.885Z,16.65
2022-09-03T03:52:27.123Z,16.67
2022-09-03T03:54:53.839Z,16.64
2022-09-03T03:57:23.042Z,16.61
2022-09-03T03:59:50.808Z,16.60
2022-09-03T04:02:18.120Z,16.57
2022-09-03T04:04:44.717Z,16.56
2022-09-03T04:07:11.166Z,16.54
2022-09-03T04:09:37.780Z,16.53
2022-09-03T04:12:08.508Z,16.52
2022-09-03T04:14:35.432Z,16.50
2022-09-03T04:17:03.127Z,16.48
2022-09-03T04:19:30.205Z,16.44
2022-09-03T04:21:56.748Z,16.44
2022-09-03T04:24:23.882Z,16.41
2022-09-03T04:26:50.522Z,16.41
2022-09-03T04:29:17.883Z,16.38
2022-09-03T04:32:04.298Z,16.37
2022-09-03T04:34:30.762Z,16.34
2022-09-03T04:37:00.215Z,16.32
2022-09-03T04:39:26.857Z,16.29
2022-09-03T04:41:53.381Z,16.27
2022-09-03T04:44:19.837Z,16.26
2022-09-03T04:46:47.839Z,16.25
2022-09-03T04:49:14.757Z,16.23
2022-09-03T04:51:41.248Z,16.17
2022-09-03T04:54:09.144Z,16.19
2022-09-03T04:56:36.493Z,16.18
2022-09-03T04:59:08.768Z,16.16
2022-09-03T05:01:37.562Z,16.15
2022-09-03T05:04:04.893Z,16.12
2022-09-03T05:06:32.691Z,16.09
2022-09-03T05:08:59.985Z,16.11
2022-09-03T05:11:27.763Z,16.09
2022-09-03T05:13:58.082Z,16.08
2022-09-03T05:16:26.119Z,16.07
2022-09-03T05:18:54.089Z,16.06
2022-09-03T05:21:21.413Z,16.02
2022-09-03T05:23:52.995Z,16.03
2022-09-03T05:26:22.177Z,16.03
2022-09-03T05:28:52.914Z,16.00
2022-09-03T05:31:20.459Z,16.02
2022-09-03T05:33:52.670Z,16.01
2022-09-03T05:36:23.030Z,16.00
2022-09-03T05:38:50.375Z,16.00
2022-09-03T05:41:19.058Z,16.00
2022-09-03T05:43:51.839Z,16.00
2022-09-03T05:46:18.567Z,15.99
2022-09-03T05:48:45.467Z,16.01
2022-09-03T05:51:17.650Z,16.01
2022-09-03T05:53:46.152Z,15.98
2022-09-03T05:56:24.826Z,15.98
2022-09-03T05:58:53.842Z,16.01
2022-09-03T06:01:25.999Z,16.01
2022-09-03T06:03:58.309Z,16.00
2022-09-03T06:06:27.100Z,16.01
2022-09-03T06:08:58.942Z,16.01
2022-09-03T06:11:28.141Z,15.99
2022-09-03T06:13:56.648Z,16.02
2022-09-03T06:16:30.754Z,16.04
2022-09-03T06:19:02.744Z,16.03
2022-09-03T06:21:30.022Z,16.03
2022-09-03T06:23:59.487Z,16.07
2022-09-03T06:26:30.405Z,16.07
2022-09-03T06:28:57.537Z,16.07
2022-09-03T06:31:25.351Z,16.07
2022-09-03T06:33:54.468Z,16.12
2022-09-03T06:36:22.719Z,16.12
2022-09-03T06:38:52.514Z,16.11
2022-09-03T06:41:26.616Z,16.15
2022-09-03T06:43:57.169Z,16.13
2022-09-03T06:46:24.447Z,16.17
2022-09-03T06:48:51.699Z,16.20
2022-09-03T06:51:20.488Z,16.20
2022-09-03T06:53:49.982Z,16.21
2022-09-03T06:56:19.434Z,16.23
2022-09-03T06:58:49.525Z,16.25
2022-09-03T07:01:19.293Z,16.26
2022-09-03T07:03:48.195Z,16.25
2022-09-03T07:06:16.987Z,16.30
2022-09-03T07:08:44.238Z,16.28
2022-09-03T07:11:13.382Z,16.34
2022-09-03T07:13:43.244Z,16.35
2022-09-03T07:16:15.757Z,16.38
2022-09-03T07:18:46.414Z,16.39
2022-09-03T07:21:18.339Z,16.41
2022-09-03T07:23:45.300Z,16.45
2022-09-03T07:26:14.942Z,16.47
2022-09-03T07:28:43.318Z,16.49
2022-09-03T07:31:19.746Z,16.51
2022-09-03T07:33:47.280Z,16.51
2022-09-03T07:36:17.684Z,16.55
2022-09-03T07:38:45.552Z,16.56
2022-09-03T07:41:27.682Z,16.59
2022-09-03T07:43:55.358Z,16.63
2022-09-03T07:46:23.957Z,16.67
2022-09-03T07:48:52.566Z,16.67
2022-09-03T07:51:21.347Z,16.71
2022-09-03T07:53:48.817Z,16.73
2022-09-03T07:56:15.851Z,16.80
2022-09-03T07:58:42.909Z,16.77
2022-09-03T08:01:15.573Z,16.85
2022-09-03T08:03:50.985Z,16.87
2022-09-03T08:06:20.753Z,16.88
2022-09-03T08:08:47.809Z,16.92
2022-09-03T08:11:20.589Z,16.97
2022-09-03T08:14:01.602Z,16.96
2022-09-03T08:16:34.319Z,16.99
2022-09-03T08:19:01.049Z,17.04
2022-09-03T08:21:27.987Z,17.09
2022-09-03T08:24:02.667Z,17.10
2022-09-03T08:26:36.008Z,17.13
2022-09-03T08:29:03.960Z,17.17
2022-09-03T08:31:32.317Z,17.19
2022-09-03T08:34:03.139Z,17.24
2022-09-03T08:36:31.275Z,17.27
2022-09-03T08:39:09.330Z,17.29
2022-09-03T08:41:51.244Z,17.31
2022-09-03T08:44:56.889Z,17.34
2022-09-03T08:47:33.260Z,17.39
2022-09-03T08:49:59.628Z,17.44
2022-09-03T08:52:42.310Z,17.45
2022-09-03T08:55:21.186Z,17.50
2022-09-03T08:57:51.295Z,17.54
2022-09-03T09:00:18.672Z,17.55
2022-09-03T09:03:03.663Z,17.61
2022-09-03T09:05:39.484Z,17.64
2022-09-03T09:08:32.391Z,17.66
2022-09-03T09:11:16.761Z,17.71
2022-09-03T09:13:59.458Z,17.71
2022-09-03T09:16:50.943Z,17.76
2022-09-03T09:19:37.625Z,17.78
2022-09-03T09:22:29.233Z,17.82
2022-09-03T09:24:59.371Z,17.90
2022-09-03T09:27:25.898Z,17.95
2022-09-03T09:29:54.963Z,18.00
2022-09-03T09:32:21.702Z,18.02
2022-09-03T09:34:52.049Z,18.06
2022-09-03T09:37:19.852Z,18.09
2022-09-03T09:40:01.118Z,18.17
2022-09-03T09:42:29.908Z,18.22
2022-09-03T09:44:56.466Z,18.30
2022-09-03T09:47:28.738Z,18.33
2022-09-03T09:49:58.099Z,18.37
2022-09-03T09:52:28.573Z,18.38
2022-09-03T09:55:11.051Z,18.41
2022-09-03T09:57:38.719Z,18.41
2022-09-03T10:00:11.809Z,18.49
2022-09-03T10:02:42.351Z,18.57
2022-09-03T10:05:13.726Z,18.63
2022-09-03T10:07:40.484Z,18.68
2022-09-03T10:10:13.022Z,18.74
2022-09-03T10:12:48.167Z,18.81
2022-09-03T10:15:48.854Z,18.83
2022-09-03T10:18:34.909Z,18.91
2022-09-03T10:21:11.060Z,18.94
2022-09-03T10:23:58.705Z,18.95
2022-09-03T10:26:33.088Z,19.02
2022-09-03T10:29:03.606Z,19.09
2022-09-03T10:31:54.053Z,19.12
2022-09-03T10:34:48.813Z,19.15
2022-09-03T10:37:27.212Z,19.18
2022-09-03T10:40:19.466Z,19.19
2022-09-03T11:54:59.062Z,20.15
2022-09-03T11:57:31.189Z,20.23
2022-09-03T12:07:20.175Z,20.34
2022-09-03T12:10:03.259Z,20.36
2022-09-03T12:12:48.022Z,20.42
2022-09-03T12:15:36.361Z,20.40
2022-09-03T12:18:19.057Z,20.45
2022-09-03T12:20:47.462Z,20.50
2022-09-03T12:23:31.968Z,20.58
2022-09-03T12:26:00.591Z,20.55
2022-09-03T12:28:29.406Z,20.62
2022-09-03T12:31:08.218Z,20.66
2022-09-03T12:33:41.958Z,20.72
2022-09-03T12:36:09.791Z,20.75
2022-09-03T12:39:00.778Z,20.77
2022-09-03T12:41:28.579Z,20.77
2022-09-03T12:43:58.165Z,20.79
2022-09-03T12:46:31.997Z,20.82
2022-09-03T12:52:05.166Z,20.81
2022-09-03T12:54:34.071Z,20.83
2022-09-03T12:57:01.264Z,20.88
2022-09-03T12:59:32.158Z,20.91
2022-09-03T13:02:05.718Z,20.92
2022-09-03T13:04:35.811Z,20.91
2022-09-03T13:14:12.391Z,21.03
2022-09-03T13:16:44.862Z,21.03
2022-09-03T13:19:20.173Z,21.05
2022-09-03T13:21:52.860Z,21.09
2022-09-03T13:24:53.827Z,21.04
2022-09-03T13:27:38.928Z,21.11
2022-09-03T13:30:18.924Z,21.14
2022-09-03T13:33:13.461Z,21.14
2022-09-03T13:36:12.266Z,21.12
2022-09-03T13:38:49.433Z,21.20
2022-09-03T13:41:46.347Z,21.18
2022-09-03T13:44:41.158Z,21.24
2022-09-03T15:04:30.867Z,21.64
2022-09-03T15:07:25.249Z,21.66
2022-09-03T15:10:16.805Z,21.71
2022-09-03T15:12:58.077Z,21.70
2022-09-03T15:15:38.218Z,21.73
2022-09-03T15:18:27.693Z,21.78
2022-09-03T15:21:24.875Z,21.77
2022-09-03T15:24:10.118Z,21.78
2022-09-03T15:26:52.162Z,21.79
2022-09-03T15:29:48.358Z,21.78
2022-09-03T15:32:29.315Z,21.79
2022-09-03T15:35:07.476Z,21.79
2022-09-03T15:37:52.752Z,21.77
2022-09-03T15:40:32.461Z,21.75
2022-09-03T15:43:16.133Z,21.79
2022-09-03T15:45:48.782Z,21.77
2022-09-03T15:48:39.158Z,21.75
2022-09-03T15:51:20.721Z,21.76
2022-09-03T15:54:25.184Z,21.77
2022-09-03T15:57:02.362Z,21.75
2022-09-03T15:59:42.351Z,21.74
2022-09-03T16:02:18.234Z,21.77
2022-09-03T16:05:07.363Z,21.77
2022-09-03T16:07:42.304Z,21.76
2022-09-03T16:10:30.499Z,21.80
2022-09-03T16:13:06.675Z,21.77
2022-09-03T16:16:06.862Z,21.74
2022-09-03T16:18:37.274Z,21.75
2022-09-03T16:21:21.478Z,21.76
2022-09-03T16:24:31.491Z,21.70
2022-09-03T16:27:11.231Z,21.72
2022-09-03T16:29:39.421Z,21.75
2022-09-03T16:32:34.754Z,21.72
2022-09-03T16:35:37.244Z,21.76
2022-09-03T16:38:26.456Z,21.69
2022-09-03T16:41:01.919Z,21.75
2022-09-03T16:43:45.095Z,21.74
2022-09-03T16:46:17.694Z,21.80
2022-09-03T16:48:56.759Z,21.78
2022-09-03T16:51:35.002Z,21.80
2022-09-03T16:54:09.794Z,21.82
2022-09-03T16:57:13.512Z,21.81
2022-09-03T17:00:13.031Z,21.81
2022-09-03T17:03:12.180Z,21.82
2022-09-03T17:05:56.776Z,21.82
2022-09-03T17:08:39.626Z,21.82
2022-09-03T17:11:51.412Z,21.80
2022-09-03T17:14:45.414Z,21.80
2022-09-03T17:17:52.968Z,21.77
2022-09-03T17:20:49.197Z,21.81
2022-09-03T17:23:53.513Z,21.79
2022-09-03T17:26:29.909Z,21.78
2022-09-03T17:29:08.371Z,21.78
2022-09-03T17:31:55.345Z,21.73
2022-09-03T17:34:24.795Z,21.74
2022-09-03T17:36:55.076Z,21.73
2022-09-03T17:39:24.541Z,21.71
2022-09-03T17:41:54.285Z,21.68
2022-09-03T17:44:39.139Z,21.66
2022-09-03T17:47:24.390Z,21.64
2022-09-03T17:49:56.294Z,21.62
2022-09-03T17:52:39.169Z,21.55
2022-09-03T17:55:43.428Z,21.52
2022-09-03T17:58:31.070Z,21.51
2022-09-03T18:01:07.906Z,21.48
2022-09-03T18:03:44.851Z,21.45
2022-09-03T18:06:37.932Z,21.42
2022-09-03T18:09:22.263Z,21.41
2022-09-03T18:12:05.935Z,21.33
2022-09-03T18:14:59.527Z,21.32
2022-09-03T18:17:39.304Z,21.30
2022-09-03T18:20:27.866Z,21.29
2022-09-03T18:23:58.227Z,21.23
2022-09-03T18:26:50.105Z,21.19
2022-09-03T18:29:54.441Z,21.11
2022-09-03T18:32:40.547Z,21.12
2022-09-03T18:35:27.286Z,21.08
2022-09-03T18:38:12.866Z,21.04
2022-09-03T18:41:28.771Z,20.97
2022-09-03T18:44:24.936Z,20.91
2022-09-03T18:48:01.543Z,20.89
2022-09-03T18:50:47.772Z,20.85
2022-09-03T18:53:36.732Z,20.81
2022-09-03T18:56:38.966Z,20.74
2022-09-03T18:59:33.306Z,20.72
2022-09-03T19:02:26.789Z,20.67
2022-09-03T19:05:18.260Z,20.65
2022-09-03T19:08:10.827Z,20.56
2022-09-03T19:11:10.499Z,20.55
2022-09-03T19:13:58.405Z,20.52
2022-09-03T19:17:08.986Z,20.48
2022-09-03T19:20:19.170Z,20.43
2022-09-03T19:23:04.181Z,20.36
2022-09-03T19:25:49.673Z,20.34
2022-09-03T19:28:40.350Z,20.30
2022-09-03T19:31:39.935Z,20.23
2022-09-03T19:34:28.148Z,20.22
2022-09-03T19:37:22.641Z,20.18
2022-09-03T19:40:27.204Z,20.13
2022-09-03T19:43:27.416Z,20.10
2022-09-03T19:46:24.527Z,20.05
2022-09-03T19:49:36.864Z,20.00
2022-09-03T19:52:50.905Z,19.97
2022-09-03T19:55:43.376Z,19.93
2022-09-03T19:58:42.608Z,19.90
2022-09-03T20:01:29.516Z,19.85
2022-09-03T20:04:18.986Z,19.84
2022-09-03T20:07:04.816Z,19.81
2022-09-03T20:09:56.347Z,19.78
2022-09-03T20:12:25.091Z,19.73
2022-09-03T20:14:51.546Z,19.72
2022-09-03T20:17:30.475Z,19.70
2022-09-03T20:20:37.592Z,19.63
2022-09-03T20:23:23.320Z,19.60
2022-09-03T20:26:14.331Z,19.56
2022-09-03T20:28:59.366Z,19.55
2022-09-03T20:31:40.443Z,19.53
2022-09-03T20:34:15.833Z,19.50
2022-09-03T20:37:16.291Z,19.44
2022-09-03T20:39:52.374Z,19.44
2022-09-03T20:42:22.766Z,19.42
2022-09-03T20:45:03.487Z,19.40
2022-09-03T20:48:00.543Z,19.35
2022-09-03T20:50:46.010Z,19.30
2022-09-03T20:53:43.820Z,19.24
2022-09-03T20:56:19.787Z,19.23
2022-09-03T20:59:03.562Z,19.21
2022-09-03T21:01:43.067Z,19.17
2022-09-03T21:04:33.253Z,19.16
2022-09-03T21:07:37.439Z,19.12
2022-09-03T21:10:30.055Z,19.08
2022-09-03T21:13:33.160Z,19.05
2022-09-03T21:16:28.646Z,19.02
2022-09-03T21:19:06.363Z,19.00
2022-09-03T21:22:01.041Z,18.95
2022-09-03T21:24:33.891Z,18.96
2022-09-03T21:27:29.887Z,18.89
2022-09-03T21:30:04.767Z,18.88
2022-09-03T21:32:45.836Z,18.88
2022-09-03T21:40:24.411Z,18.79
2022-09-03T21:43:00.851Z,18.77
2022-09-03T21:45:57.916Z,18.74
2022-09-03T21:48:38.386Z,18.70
2022-09-03T21:51:21.839Z,18.70
2022-09-03T21:53:55.698Z,18.69
2022-09-03T21:56:32.765Z,18.66
2022-09-03T21:59:05.699Z,18.66
2022-09-03T22:01:53.435Z,18.63
2022-09-03T22:04:19.937Z,18.60
2022-09-03T22:06:58.674Z,18.57
2022-09-03T22:09:48.885Z,18.54
2022-09-03T22:12:23.940Z,18.51
2022-09-03T22:14:55.536Z,18.51
2022-09-03T22:17:47.108Z,18.48
2022-09-03T22:20:15.844Z,18.47
2022-09-03T22:22:56.434Z,18.43
2022-09-03T22:25:50.991Z,18.42
2022-09-03T22:28:38.203Z,18.35
2022-09-03T22:31:15.329Z,18.37
2022-09-03T22:33:46.655Z,18.35
2022-09-03T22:36:21.425Z,18.34
2022-09-03T22:39:13.464Z,18.31
2022-09-03T22:42:07.762Z,18.24
2022-09-03T22:45:20.892Z,18.25
2022-09-03T22:48:02.746Z,18.19
2022-09-03T22:50:41.640Z,18.19
2022-09-03T22:53:27.861Z,18.12
2022-09-03T22:56:07.256Z,18.13
2022-09-03T22:58:52.733Z,18.11
2022-09-03T23:01:30.444Z,18.11
2022-09-03T23:04:03.104Z,18.10
2022-09-03T23:06:35.977Z,18.08
2022-09-03T23:09:10.247Z,18.06
2022-09-03T23:11:57.884Z,18.02
2022-09-03T23:14:29.328Z,18.02
2022-09-03T23:17:07.300Z,18.00
2022-09-03T23:19:40.801Z,17.99
2022-09-03T23:22:20.736Z,17.95
2022-09-03T23:25:11.134Z,17.92
2022-09-03T23:27:59.737Z,17.86
2022-09-03T23:30:26.571Z,17.90
2022-09-03T23:32:57.319Z,17.89
2022-09-03T23:35:29.855Z,17.89
2022-09-03T23:38:24.089Z,17.85
2022-09-03T23:40:54.874Z,17.85
2022-09-03T23:43:50.335Z,17.82
2022-09-03T23:46:37.475Z,17.80
2022-09-03T23:49:09.866Z,17.81
2022-09-03T23:51:49.774Z,17.79
2022-09-03T23:54:25.199Z,17.79
2022-09-03T23:57:29.863Z,17.74
2022-09-03T23:59:59.305Z,17.75
